Time;durP1;ratioP1;P1;durP2;ratioP2;P2;SDS_P1;SDS_P2;PMS_P1;PMS_P2;Temp;Humidity;BMP_temperature;BMP_pressure;BME280_temperature;BME280_humidity;BME280_pressure;Samples;Min_cycle;Max_cycle;Signal;HPM_P1;HPM_P2
2022/01/02 00:00:02;;;;;;;13.30;6.75;;;11.40;99.90;;;;;;4867038;29;20654;-59
2022/01/02 00:02:29;;;;;;;11.05;6.78;;;11.40;99.90;;;;;;4879903;29;20183;-59
2022/01/02 00:05:04;;;;;;;12.02;6.90;;;11.40;99.90;;;;;;4864915;29;20135;-61
2022/01/02 00:07:33;;;;;;;14.68;7.43;;;11.40;99.90;;;;;;4883290;29;20327;-59
2022/01/02 00:10:04;;;;;;;13.00;6.72;;;11.40;99.90;;;;;;4868558;29;20095;-61
2022/01/02 00:12:33;;;;;;;13.80;7.32;;;11.40;99.90;;;;;;4866140;29;20135;-60
2022/01/02 00:15:04;;;;;;;13.82;6.97;;;11.40;99.90;;;;;;4867239;29;20148;-59
2022/01/02 00:17:31;;;;;;;15.32;7.43;;;11.40;99.90;;;;;;4863342;29;20417;-61
2022/01/02 00:20:08;;;;;;;14.13;8.52;;;11.30;99.90;;;;;;4850515;29;20053;-60
2022/01/02 00:22:36;;;;;;;13.57;7.30;;;11.40;99.90;;;;;;4866214;29;20135;-60
2022/01/02 00:25:08;;;;;;;11.52;6.97;;;11.40;99.90;;;;;;4881607;29;20540;-61
2022/01/02 00:27:37;;;;;;;11.82;7.63;;;11.40;99.90;;;;;;4880400;29;20063;-59
2022/01/02 00:30:04;;;;;;;15.15;7.68;;;11.40;99.90;;;;;;4866188;29;20044;-61
2022/01/02 00:32:32;;;;;;;15.98;7.65;;;11.40;99.90;;;;;;4848494;29;20050;-61
2022/01/02 00:35:03;;;;;;;12.27;6.90;;;11.30;99.90;;;;;;4863789;29;20101;-59
2022/01/02 00:37:29;;;;;;;14.90;7.07;;;11.30;99.90;;;;;;4864573;29;20056;-60
2022/01/02 00:39:54;;;;;;;14.10;7.15;;;11.30;99.90;;;;;;4865528;29;20507;-61
2022/01/02 00:42:41;;;;;;;13.18;6.95;;;11.30;99.90;;;;;;4865501;29;20052;-61
2022/01/02 00:45:20;;;;;;;16.52;7.25;;;11.40;99.90;;;;;;4865398;29;20270;-60
2022/01/02 00:48:14;;;;;;;14.65;6.55;;;11.30;99.90;;;;;;4864586;29;20060;-60
2022/01/02 00:50:53;;;;;;;12.75;7.20;;;11.30;99.90;;;;;;4881742;29;20051;-61
2022/01/02 00:53:20;;;;;;;14.48;7.10;;;11.30;99.90;;;;;;4865369;29;20070;-61
2022/01/02 00:55:56;;;;;;;16.95;7.57;;;11.30;99.90;;;;;;4881075;29;20049;-60
2022/01/02 00:58:55;;;;;;;12.60;7.18;;;11.30;99.90;;;;;;4880922;29;20052;-60
2022/01/02 01:01:29;;;;;;;15.45;7.88;;;11.30;99.90;;;;;;4863959;29;20045;-59
2022/01/02 01:03:55;;;;;;;19.52;7.72;;;11.30;99.90;;;;;;4864928;29;20738;-60
2022/01/02 01:06:30;;;;;;;18.55;7.18;;;11.30;99.90;;;;;;4864926;29;20095;-60
2022/01/02 01:08:56;;;;;;;16.92;7.35;;;11.20;99.90;;;;;;4878688;29;20120;-60
2022/01/02 01:11:27;;;;;;;12.85;7.70;;;11.30;99.90;;;;;;4846283;29;20057;-60
2022/01/02 01:13:55;;;;;;;14.80;7.50;;;11.20;99.90;;;;;;4864907;29;20127;-59
2022/01/02 01:16:22;;;;;;;13.73;7.63;;;11.30;99.90;;;;;;4862172;29;20143;-61
2022/01/02 01:18:48;;;;;;;16.02;7.78;;;11.30;99.90;;;;;;4863827;29;20057;-60
2022/01/02 01:21:15;;;;;;;15.55;8.02;;;11.30;99.90;;;;;;4878985;29;20491;-60
2022/01/02 01:23:41;;;;;;;15.75;8.02;;;11.20;99.90;;;;;;4870820;29;20060;-59
2022/01/02 01:26:10;;;;;;;15.55;8.32;;;11.20;99.90;;;;;;4862134;29;20494;-60
2022/01/02 01:28:36;;;;;;;19.42;8.35;;;11.20;99.90;;;;;;4864270;29;20052;-60
2022/01/02 01:31:03;;;;;;;17.88;7.80;;;11.20;99.90;;;;;;4849571;29;20420;-61
2022/01/02 01:33:30;;;;;;;18.70;8.70;;;11.20;99.90;;;;;;4882246;29;20091;-60
2022/01/02 01:35:55;;;;;;;15.82;7.88;;;11.20;99.90;;;;;;4880460;29;20199;-61
2022/01/02 01:38:22;;;;;;;20.58;8.77;;;11.20;99.90;;;;;;4880646;29;20484;-60
2022/01/02 01:41:10;;;;;;;18.33;8.13;;;11.20;99.90;;;;;;4880972;29;20041;-60
2022/01/02 01:43:40;;;;;;;19.13;8.45;;;11.20;99.90;;;;;;4881728;29;20052;-61
2022/01/02 01:46:06;;;;;;;18.60;9.30;;;11.20;99.90;;;;;;4879575;29;20052;-60
2022/01/02 01:48:32;;;;;;;18.30;9.38;;;11.20;99.90;;;;;;4865055;29;20098;-60
2022/01/02 01:50:57;;;;;;;17.85;8.70;;;11.20;99.90;;;;;;4864444;29;20052;-61
2022/01/02 01:53:23;;;;;;;23.65;9.68;;;11.20;99.90;;;;;;4862020;29;20148;-61
2022/01/02 01:55:50;;;;;;;24.00;9.50;;;11.20;99.90;;;;;;4864284;29;20056;-60
2022/01/02 01:58:16;;;;;;;21.02;9.73;;;11.20;99.90;;;;;;4843815;29;20220;-60
2022/01/02 02:00:42;;;;;;;19.98;10.05;;;11.20;99.90;;;;;;4848704;29;20061;-59
2022/01/02 02:03:08;;;;;;;20.42;9.55;;;11.20;99.90;;;;;;4863817;29;20100;-60
2022/01/02 02:05:34;;;;;;;18.88;9.20;;;11.20;99.90;;;;;;4863848;29;20483;-60
2022/01/02 02:08:00;;;;;;;23.42;10.25;;;11.20;99.90;;;;;;4879641;29;20139;-61
2022/01/02 02:12:55;;;;;;;18.10;9.93;;;11.20;99.90;;;;;;4879819;29;20508;-60
2022/01/02 02:15:21;;;;;;;22.17;10.55;;;11.20;99.90;;;;;;4863215;29;20507;-60
2022/01/02 02:17:49;;;;;;;22.55;10.85;;;11.20;99.90;;;;;;4863203;29;20057;-60
2022/01/02 02:20:33;;;;;;;20.00;10.45;;;11.20;99.90;;;;;;4847146;29;20052;-60
2022/01/02 02:23:00;;;;;;;20.27;10.68;;;11.20;99.90;;;;;;4879858;29;20448;-60
2022/01/02 02:25:31;;;;;;;19.23;10.68;;;11.20;99.90;;;;;;4877385;29;20623;-60
2022/01/02 02:28:06;;;;;;;20.27;10.90;;;11.20;99.90;;;;;;4879693;29;20052;-58
2022/01/02 02:30:33;;;;;;;20.45;10.50;;;11.10;99.90;;;;;;4878249;29;20487;-61
2022/01/02 02:33:00;;;;;;;25.38;11.60;;;11.10;99.90;;;;;;4881304;29;21091;-60
2022/01/02 02:35:28;;;;;;;19.00;11.43;;;11.20;99.90;;;;;;4862905;29;20062;-60
2022/01/02 02:37:54;;;;;;;18.35;10.82;;;11.20;99.90;;;;;;4861796;29;20259;-59
2022/01/02 02:40:22;;;;;;;23.05;12.32;;;11.10;99.90;;;;;;4839691;29;20045;-59
2022/01/02 02:52:18;;;;;;;24.10;11.90;;;11.10;99.90;;;;;;4875995;29;20268;-61
2022/01/02 02:54:22;;;;;;;24.08;12.00;;;11.10;99.90;;;;;;4874421;29;20261;-60
2022/01/02 02:59:20;;;;;;;25.02;13.02;;;11.00;99.90;;;;;;4859938;29;20084;-60
2022/01/02 03:01:45;;;;;;;27.13;12.30;;;11.00;99.90;;;;;;4861303;29;20108;-61
2022/01/02 03:04:11;;;;;;;24.63;12.60;;;11.00;99.90;;;;;;4879330;29;20432;-60
2022/01/02 03:06:37;;;;;;;25.77;13.25;;;11.00;99.90;;;;;;4878710;29;20406;-60
2022/01/02 03:09:08;;;;;;;20.38;12.35;;;11.00;99.90;;;;;;4878541;29;20151;-59
2022/01/02 03:11:40;;;;;;;25.27;13.27;;;11.00;99.90;;;;;;4875927;29;20052;-61
2022/01/02 03:14:07;;;;;;;25.80;13.57;;;11.00;99.90;;;;;;4879155;29;20053;-60
2022/01/02 03:16:33;;;;;;;28.48;14.60;;;11.00;99.90;;;;;;4877985;29;20089;-59
2022/01/02 03:18:59;;;;;;;23.10;12.75;;;11.00;99.90;;;;;;4861292;29;20175;-59
2022/01/02 03:21:26;;;;;;;28.58;13.60;;;11.00;99.90;;;;;;4850028;29;20052;-60
2022/01/02 03:23:52;;;;;;;26.40;13.75;;;11.00;99.90;;;;;;4865308;29;20135;-60
2022/01/02 03:26:19;;;;;;;23.00;13.85;;;11.00;99.90;;;;;;4848685;29;20091;-60
2022/01/02 03:28:46;;;;;;;21.33;12.65;;;11.00;99.90;;;;;;4878859;29;20423;-60
2022/01/02 03:31:12;;;;;;;22.42;12.30;;;11.00;99.90;;;;;;4862820;29;20059;-60
2022/01/02 03:33:38;;;;;;;23.95;12.40;;;11.00;99.90;;;;;;4863393;29;20056;-60
2022/01/02 03:36:05;;;;;;;23.33;12.55;;;11.00;99.90;;;;;;4864728;29;20063;-59
2022/01/02 03:38:31;;;;;;;25.33;13.77;;;11.00;99.90;;;;;;4865740;29;20140;-60
2022/01/02 03:40:57;;;;;;;23.52;13.60;;;11.00;99.90;;;;;;4879030;29;20055;-59
2022/01/02 03:43:23;;;;;;;23.13;13.45;;;11.00;99.90;;;;;;4866769;29;20053;-60
2022/01/02 03:45:49;;;;;;;30.17;14.30;;;11.10;99.90;;;;;;4851622;29;20055;-59
2022/01/02 03:48:15;;;;;;;24.20;13.48;;;10.90;99.90;;;;;;4883524;29;20052;-58
2022/01/02 03:50:41;;;;;;;23.60;12.65;;;11.00;99.90;;;;;;4865709;29;20058;-60
2022/01/02 03:53:07;;;;;;;22.25;12.82;;;11.00;99.90;;;;;;4874465;29;20052;-59
2022/01/02 03:55:34;;;;;;;23.60;13.23;;;10.90;99.90;;;;;;4864514;29;20064;-60
2022/01/02 03:58:00;;;;;;;26.98;13.25;;;10.90;99.90;;;;;;4881307;29;20099;-59
2022/01/02 04:00:26;;;;;;;23.25;13.18;;;10.90;99.90;;;;;;4862878;29;20437;-59
2022/01/02 04:02:52;;;;;;;30.23;13.95;;;10.90;99.90;;;;;;4865737;29;20076;-60
2022/01/02 04:05:18;;;;;;;29.40;15.43;;;10.90;99.90;;;;;;4867815;29;20108;-60
2022/01/02 04:07:44;;;;;;;26.92;14.00;;;10.90;99.90;;;;;;4879738;29;20067;-60
2022/01/02 04:10:13;;;;;;;29.83;14.88;;;10.90;99.90;;;;;;4863202;29;20087;-60
2022/01/02 04:12:39;;;;;;;27.15;14.35;;;10.90;99.90;;;;;;4879504;29;20036;-60
2022/01/02 04:15:07;;;;;;;29.75;13.68;;;10.90;99.90;;;;;;4866750;29;20046;-59
2022/01/02 04:17:34;;;;;;;27.17;13.75;;;10.90;99.90;;;;;;4881884;29;20059;-60
2022/01/02 04:20:02;;;;;;;25.42;13.38;;;10.90;99.90;;;;;;4851844;29;20052;-61
2022/01/02 04:22:28;;;;;;;25.10;13.38;;;11.00;99.90;;;;;;4867429;29;20056;-59
2022/01/02 04:24:54;;;;;;;25.45;13.48;;;11.00;99.90;;;;;;4867038;29;20542;-60
2022/01/02 04:27:21;;;;;;;24.98;12.77;;;11.00;99.90;;;;;;4865167;29;20051;-60
2022/01/02 04:29:47;;;;;;;26.98;13.05;;;11.00;99.90;;;;;;4864217;29;20063;-60
2022/01/02 04:32:14;;;;;;;25.52;12.48;;;10.90;99.90;;;;;;4865706;29;20049;-60
2022/01/02 04:34:40;;;;;;;28.05;13.13;;;10.90;99.90;;;;;;4866644;29;20045;-60
2022/01/02 04:37:07;;;;;;;26.27;12.38;;;11.00;99.90;;;;;;4867810;29;20548;-59
2022/01/02 04:39:33;;;;;;;27.45;12.23;;;11.00;99.90;;;;;;4864960;29;20052;-60
2022/01/02 04:41:59;;;;;;;26.17;12.23;;;11.00;99.90;;;;;;4865368;29;20107;-60
2022/01/02 04:44:25;;;;;;;26.70;12.38;;;11.00;99.90;;;;;;4864376;29;20809;-60
2022/01/02 04:46:51;;;;;;;32.75;12.18;;;11.00;99.90;;;;;;4863450;29;20076;-60
2022/01/02 04:49:17;;;;;;;29.58;12.13;;;11.00;99.90;;;;;;4882048;29;20514;-60
2022/01/02 04:51:43;;;;;;;23.67;12.00;;;11.00;99.90;;;;;;4867075;29;20094;-59
2022/01/02 04:54:08;;;;;;;23.85;11.20;;;11.00;99.90;;;;;;4842663;29;20541;-59
2022/01/02 04:56:34;;;;;;;27.85;11.80;;;11.00;99.90;;;;;;4865459;29;20056;-61
2022/01/02 04:59:00;;;;;;;21.58;11.25;;;11.00;99.90;;;;;;4881027;29;20048;-60
2022/01/02 05:01:26;;;;;;;27.45;12.13;;;11.00;99.90;;;;;;4864345;29;20104;-60
2022/01/02 05:03:51;;;;;;;29.38;12.05;;;11.00;99.90;;;;;;4878736;29;20179;-59
2022/01/02 05:06:17;;;;;;;22.20;11.70;;;11.00;99.90;;;;;;4864306;29;20563;-59
2022/01/02 05:08:44;;;;;;;29.50;11.90;;;11.10;99.90;;;;;;4863867;29;20044;-60
2022/01/02 05:11:11;;;;;;;30.40;13.00;;;11.10;99.90;;;;;;4864216;29;20090;-60
2022/01/02 05:13:36;;;;;;;24.83;12.05;;;11.10;99.90;;;;;;4882147;29;20063;-60
2022/01/02 05:16:02;;;;;;;25.13;11.30;;;11.10;99.90;;;;;;4862462;29;20052;-60
2022/01/02 05:18:28;;;;;;;24.73;11.98;;;11.10;99.90;;;;;;4863206;29;20108;-60
2022/01/02 05:20:54;;;;;;;26.35;12.15;;;11.10;99.90;;;;;;4862370;29;20055;-60
2022/01/02 05:23:21;;;;;;;28.25;12.75;;;11.00;99.90;;;;;;4867129;29;20087;-60
2022/01/02 05:25:48;;;;;;;28.10;11.85;;;11.10;99.90;;;;;;4870816;29;20112;-59
2022/01/02 05:28:14;;;;;;;25.08;11.18;;;11.10;99.90;;;;;;4881013;29;20518;-60
2022/01/02 05:30:41;;;;;;;26.50;11.38;;;11.10;99.90;;;;;;4864101;29;20071;-60
2022/01/02 05:33:08;;;;;;;26.92;11.65;;;11.10;99.90;;;;;;4850549;29;20499;-60
2022/01/02 05:35:34;;;;;;;27.50;10.05;;;11.10;99.90;;;;;;4864100;29;20053;-60
2022/01/02 05:38:01;;;;;;;28.60;10.32;;;11.00;99.90;;;;;;4877952;29;20048;-60
2022/01/02 05:40:31;;;;;;;23.75;10.20;;;11.10;99.90;;;;;;4879230;29;20056;-60
2022/01/02 05:42:58;;;;;;;22.92;9.30;;;11.10;99.90;;;;;;4895772;29;20052;-60
2022/01/02 05:45:24;;;;;;;23.73;10.35;;;11.10;99.90;;;;;;4879695;29;20513;-60
2022/01/02 05:47:49;;;;;;;22.50;10.07;;;11.20;99.90;;;;;;4880373;29;20064;-60
2022/01/02 05:50:15;;;;;;;21.73;9.63;;;11.20;99.90;;;;;;4879296;29;20067;-59
2022/01/02 05:52:41;;;;;;;27.38;9.75;;;11.10;99.90;;;;;;4878855;29;20048;-61
2022/01/02 05:55:07;;;;;;;25.95;9.70;;;11.20;99.90;;;;;;4879228;29;20054;-59
2022/01/02 05:57:33;;;;;;;27.73;9.50;;;11.20;99.90;;;;;;4877129;29;20544;-60
2022/01/02 05:59:59;;;;;;;26.13;9.55;;;11.20;99.90;;;;;;4881038;29;20052;-60
2022/01/02 06:02:27;;;;;;;28.50;8.85;;;11.30;99.90;;;;;;4879228;29;20408;-60
2022/01/02 06:04:53;;;;;;;25.33;8.77;;;11.30;99.90;;;;;;4880911;29;20048;-60
2022/01/02 06:07:19;;;;;;;26.50;8.55;;;11.30;99.90;;;;;;4879276;29;20087;-61
2022/01/02 06:09:44;;;;;;;27.15;8.88;;;11.30;99.90;;;;;;4878686;29;20155;-60
2022/01/02 06:12:10;;;;;;;19.63;8.65;;;11.20;99.90;;;;;;4879658;29;20528;-60
2022/01/02 06:14:36;;;;;;;27.33;9.52;;;11.30;99.90;;;;;;4880951;29;20400;-60
2022/01/02 06:17:02;;;;;;;26.80;9.07;;;11.30;99.90;;;;;;4878190;29;20045;-59
2022/01/02 06:19:28;;;;;;;21.73;7.97;;;11.30;99.90;;;;;;4855056;29;20270;-61
2022/01/02 06:21:53;;;;;;;24.73;9.02;;;11.30;99.90;;;;;;4877699;29;20533;-60
2022/01/02 06:24:19;;;;;;;27.70;9.55;;;11.30;99.90;;;;;;4879496;29;20078;-59
2022/01/02 06:26:45;;;;;;;28.75;9.57;;;11.40;99.90;;;;;;4879037;29;20524;-60
2022/01/02 06:29:11;;;;;;;25.42;10.25;;;11.40;99.90;;;;;;4879881;29;20546;-59
2022/01/02 06:31:36;;;;;;;22.05;10.05;;;11.40;99.90;;;;;;4881494;29;20052;-60
2022/01/02 06:34:02;;;;;;;25.88;9.77;;;11.40;99.90;;;;;;4880486;29;20053;-60
2022/01/02 06:36:28;;;;;;;20.65;8.88;;;11.40;99.90;;;;;;4878382;29;20096;-60
2022/01/02 06:38:54;;;;;;;22.35;10.25;;;11.40;99.90;;;;;;4875332;29;20056;-60
2022/01/02 06:41:19;;;;;;;19.90;8.70;;;11.40;99.90;;;;;;4880129;29;20095;-60
2022/01/02 06:43:51;;;;;;;23.67;8.73;;;11.40;99.90;;;;;;4881292;29;20139;-60
2022/01/02 06:46:21;;;;;;;20.60;7.72;;;11.40;99.90;;;;;;4855390;29;20053;-60
2022/01/02 06:48:47;;;;;;;15.35;7.00;;;11.50;99.90;;;;;;4877809;29;20210;-61
2022/01/02 06:51:13;;;;;;;18.45;7.45;;;11.50;99.90;;;;;;4880746;29;20180;-58
2022/01/02 06:53:39;;;;;;;21.20;7.25;;;11.50;99.90;;;;;;4878167;29;20088;-60
2022/01/02 06:56:08;;;;;;;19.73;7.18;;;11.50;99.90;;;;;;4879758;29;20048;-60
2022/01/02 06:58:38;;;;;;;23.50;7.10;;;11.50;99.90;;;;;;4879582;29;20049;-60
2022/01/02 07:01:05;;;;;;;15.40;6.60;;;11.50;99.90;;;;;;4879449;29;20408;-59
2022/01/02 07:03:31;;;;;;;18.10;6.53;;;11.50;99.90;;;;;;4879793;29;20159;-60
2022/01/02 07:05:57;;;;;;;20.70;6.85;;;11.50;99.90;;;;;;4877947;29;20058;-60
2022/01/02 07:08:23;;;;;;;17.13;6.97;;;11.60;99.90;;;;;;4877692;29;20080;-60
2022/01/02 07:10:49;;;;;;;17.08;6.70;;;11.60;99.90;;;;;;4863598;29;20552;-59
2022/01/02 07:13:14;;;;;;;17.10;6.93;;;11.60;99.90;;;;;;4898090;29;20389;-60
2022/01/02 07:15:40;;;;;;;17.52;5.93;;;11.60;99.90;;;;;;4880703;29;20188;-61
2022/01/02 07:18:06;;;;;;;21.33;6.50;;;11.60;99.90;;;;;;4898208;29;20064;-60
2022/01/02 07:20:32;;;;;;;13.77;5.32;;;11.60;99.90;;;;;;4883471;29;20511;-59
2022/01/02 07:22:58;;;;;;;22.67;6.93;;;11.60;99.90;;;;;;4883176;29;20056;-59
2022/01/02 07:25:23;;;;;;;14.15;5.85;;;11.60;99.90;;;;;;4881917;29;20491;-59
2022/01/02 07:27:49;;;;;;;16.35;6.25;;;11.60;99.90;;;;;;4870009;29;20059;-60
2022/01/02 07:30:15;;;;;;;18.30;5.65;;;11.70;99.90;;;;;;4882166;29;20048;-60
2022/01/02 07:32:42;;;;;;;15.18;5.45;;;11.70;99.90;;;;;;4867153;29;20472;-60
2022/01/02 07:35:08;;;;;;;17.27;5.95;;;11.70;99.90;;;;;;4866052;29;20051;-60
2022/01/02 07:37:35;;;;;;;12.63;5.22;;;11.80;99.90;;;;;;4882671;29;20108;-60
2022/01/02 07:40:02;;;;;;;14.13;5.05;;;11.80;99.90;;;;;;4862593;29;20048;-59
2022/01/02 07:42:28;;;;;;;15.35;4.95;;;11.80;99.90;;;;;;4863033;29;20048;-58
2022/01/02 07:44:53;;;;;;;11.65;4.57;;;11.90;99.90;;;;;;4883717;29;20060;-60
2022/01/02 07:47:19;;;;;;;17.67;5.45;;;11.90;99.90;;;;;;4883990;29;20482;-59
2022/01/02 07:49:45;;;;;;;17.27;6.47;;;11.80;99.90;;;;;;4884893;29;20056;-60
2022/01/02 07:52:11;;;;;;;17.45;6.22;;;11.80;99.90;;;;;;4849347;29;20090;-60
2022/01/02 07:54:38;;;;;;;14.35;5.57;;;11.90;99.90;;;;;;4869175;29;20059;-60
2022/01/02 07:57:04;;;;;;;12.52;5.00;;;11.80;99.90;;;;;;4883225;29;20052;-59
2022/01/02 07:59:30;;;;;;;15.25;5.32;;;11.90;99.90;;;;;;4865173;29;20561;-60
2022/01/02 08:01:56;;;;;;;10.43;4.57;;;11.80;99.90;;;;;;4882465;29;20524;-60
2022/01/02 08:04:21;;;;;;;11.15;5.40;;;11.80;99.90;;;;;;4883291;29;20054;-59
2022/01/02 08:06:47;;;;;;;11.88;5.53;;;11.80;99.90;;;;;;4879473;29;20416;-60
2022/01/02 08:09:13;;;;;;;15.70;6.03;;;11.80;99.90;;;;;;4879656;29;20077;-59
2022/01/02 08:11:39;;;;;;;16.42;6.25;;;11.80;99.90;;;;;;4884316;29;20053;-59
2022/01/02 08:14:06;;;;;;;24.13;6.40;;;11.80;99.90;;;;;;4879047;29;20515;-60
2022/01/02 08:16:32;;;;;;;19.15;6.97;;;11.80;99.90;;;;;;4881420;29;20063;-60
2022/01/02 08:18:58;;;;;;;17.92;6.30;;;11.80;99.90;;;;;;4856329;29;20056;-59
2022/01/02 08:21:24;;;;;;;15.43;5.68;;;11.80;99.90;;;;;;4859238;29;20053;-60
2022/01/02 08:23:49;;;;;;;13.05;5.78;;;11.70;99.90;;;;;;4858863;29;20066;-60
2022/01/02 08:26:15;;;;;;;19.40;6.38;;;11.70;99.90;;;;;;4859728;29;20048;-59
2022/01/02 08:28:41;;;;;;;17.88;6.05;;;11.70;99.90;;;;;;4858642;29;20119;-61
2022/01/02 08:31:07;;;;;;;14.68;5.50;;;11.60;99.90;;;;;;4858070;29;20071;-59
2022/01/02 08:33:33;;;;;;;11.85;5.20;;;11.60;99.90;;;;;;4858351;29;20048;-60
2022/01/02 08:35:59;;;;;;;12.55;5.15;;;11.60;99.90;;;;;;4857649;29;20056;-59
2022/01/02 08:38:25;;;;;;;13.77;5.68;;;11.60;99.90;;;;;;4874150;29;20076;-60
2022/01/02 08:40:50;;;;;;;14.60;6.20;;;11.60;99.90;;;;;;4871485;29;20052;-60
2022/01/02 08:43:16;;;;;;;14.90;6.03;;;11.50;99.90;;;;;;4855587;29;20425;-60
2022/01/02 08:45:42;;;;;;;17.15;5.60;;;11.50;99.90;;;;;;4857599;29;20135;-61
2022/01/02 08:48:08;;;;;;;12.85;5.57;;;11.50;99.90;;;;;;4874704;29;20079;-60
2022/01/02 08:50:34;;;;;;;14.55;6.05;;;11.50;99.90;;;;;;4855380;29;20045;-59
2022/01/02 08:52:59;;;;;;;11.77;5.80;;;11.50;99.90;;;;;;4857126;29;20052;-60
2022/01/02 08:55:26;;;;;;;17.02;5.57;;;11.50;99.90;;;;;;4857609;29;20048;-60
2022/01/02 08:57:52;;;;;;;9.55;5.53;;;11.50;99.90;;;;;;4857359;29;20045;-59
2022/01/02 09:00:17;;;;;;;12.43;4.80;;;11.50;99.90;;;;;;4835851;29;20081;-60
2022/01/02 09:02:43;;;;;;;7.63;4.20;;;11.50;99.90;;;;;;4855125;29;20067;-60
2022/01/02 09:05:09;;;;;;;10.15;4.50;;;11.50;99.90;;;;;;4875026;29;20048;-60
2022/01/02 09:07:35;;;;;;;6.25;4.07;;;11.50;99.90;;;;;;4869560;29;20045;-60
2022/01/02 09:10:02;;;;;;;7.40;4.50;;;11.50;99.90;;;;;;4874415;29;22720;-60
2022/01/02 09:12:28;;;;;;;6.55;4.10;;;11.40;99.90;;;;;;4853886;29;20152;-59
2022/01/02 09:14:54;;;;;;;6.43;4.20;;;11.40;99.90;;;;;;4846090;29;20061;-59
2022/01/02 09:17:20;;;;;;;6.20;4.35;;;11.40;99.90;;;;;;4870462;29;20078;-58
2022/01/02 09:19:45;;;;;;;11.60;4.65;;;11.40;99.90;;;;;;4841042;29;20052;-59
2022/01/02 09:22:11;;;;;;;8.77;4.53;;;11.30;99.90;;;;;;4872309;29;20394;-60
2022/01/02 09:24:37;;;;;;;8.27;4.78;;;11.40;99.90;;;;;;4839612;29;20519;-59
2022/01/02 09:27:03;;;;;;;10.07;5.47;;;11.40;99.90;;;;;;4875918;29;20057;-60
2022/01/02 09:29:30;;;;;;;9.07;5.53;;;11.40;99.90;;;;;;4853036;29;20066;-59
2022/01/02 09:31:57;;;;;;;12.95;6.15;;;11.30;99.90;;;;;;4871803;29;20048;-60
2022/01/02 09:34:22;;;;;;;12.27;6.75;;;11.30;99.90;;;;;;4839725;29;20060;-60
2022/01/02 09:36:48;;;;;;;14.27;7.32;;;11.30;99.90;;;;;;4856555;29;20052;-60
2022/01/02 09:39:14;;;;;;;13.95;6.93;;;11.30;99.90;;;;;;4869888;29;20091;-60
2022/01/02 09:41:40;;;;;;;10.80;6.88;;;11.30;99.90;;;;;;4869367;29;20067;-60
2022/01/02 09:44:06;;;;;;;14.05;6.90;;;11.30;99.90;;;;;;4872130;29;20045;-59
2022/01/02 09:46:33;;;;;;;14.20;6.50;;;11.30;99.90;;;;;;4856045;29;21244;-59
2022/01/02 09:49:01;;;;;;;10.00;5.90;;;11.30;99.90;;;;;;4869849;29;20084;-60
2022/01/02 09:51:27;;;;;;;15.23;6.20;;;11.30;99.90;;;;;;4872769;29;20079;-60
2022/01/02 09:53:54;;;;;;;9.93;6.10;;;11.20;99.90;;;;;;4872259;29;20110;-59
2022/01/02 09:56:21;;;;;;;10.20;6.97;;;11.20;99.90;;;;;;4869899;29;20507;-60
2022/01/02 09:58:47;;;;;;;14.23;7.47;;;11.20;99.90;;;;;;4866293;29;20476;-60
2022/01/02 10:01:24;;;;;;;16.08;7.65;;;11.20;99.90;;;;;;4852933;29;20483;-60
2022/01/02 10:03:53;;;;;;;14.15;7.82;;;11.20;99.90;;;;;;4852970;29;20044;-59
2022/01/02 10:06:20;;;;;;;19.42;8.18;;;11.20;99.90;;;;;;4852347;29;20059;-60
2022/01/02 10:08:47;;;;;;;14.05;8.57;;;11.20;99.90;;;;;;4871809;29;20051;-61
2022/01/02 10:11:23;;;;;;;17.35;8.05;;;11.20;99.90;;;;;;4869755;29;20117;-60
2022/01/02 10:13:53;;;;;;;18.17;9.48;;;11.20;99.90;;;;;;4853521;29;20176;-61
2022/01/02 10:16:34;;;;;;;13.80;8.23;;;11.20;99.90;;;;;;4873042;29;20044;-60
2022/01/02 10:19:02;;;;;;;18.00;8.32;;;11.20;99.90;;;;;;4851609;29;20415;-60
2022/01/02 10:21:39;;;;;;;14.63;8.15;;;11.20;99.90;;;;;;4855717;29;20086;-60
2022/01/02 10:24:21;;;;;;;17.10;8.13;;;11.20;99.90;;;;;;4873081;29;20048;-59
2022/01/02 10:27:15;;;;;;;13.35;7.97;;;11.20;99.90;;;;;;4856661;29;20056;-59
2022/01/02 10:29:51;;;;;;;15.10;8.02;;;11.20;99.90;;;;;;4858545;29;20163;-61
2022/01/02 10:32:34;;;;;;;12.75;7.75;;;11.20;99.90;;;;;;4860491;29;20052;-58
2022/01/02 10:35:18;;;;;;;16.67;8.20;;;11.20;99.90;;;;;;4876203;29;22218;-60
2022/01/02 10:37:56;;;;;;;14.13;8.23;;;11.20;99.90;;;;;;4854772;29;20060;-60
2022/01/02 10:40:31;;;;;;;14.98;8.57;;;11.20;99.90;;;;;;4871531;29;20183;-60
2022/01/02 10:42:59;;;;;;;16.27;8.40;;;11.20;99.90;;;;;;4868626;29;20052;-60
2022/01/02 10:45:44;;;;;;;19.48;8.93;;;11.20;99.90;;;;;;4863668;29;20072;-59
2022/01/02 10:48:18;;;;;;;18.05;8.88;;;11.30;99.90;;;;;;4868058;29;20044;-60
2022/01/02 10:51:14;;;;;;;22.30;8.25;;;11.30;99.90;;;;;;4882188;29;20052;-60
2022/01/02 10:53:52;;;;;;;22.00;8.43;;;11.30;99.90;;;;;;4864853;29;20092;-60
2022/01/02 10:56:22;;;;;;;18.48;8.05;;;11.40;99.90;;;;;;4862838;29;20045;-58
2022/01/02 10:58:48;;;;;;;20.40;7.80;;;11.40;99.90;;;;;;4873739;29;20057;-58
2022/01/02 11:01:14;;;;;;;17.98;6.93;;;11.40;99.90;;;;;;4856612;29;20103;-60
2022/01/02 11:03:44;;;;;;;19.88;6.95;;;11.40;99.90;;;;;;4861993;29;20056;-60
2022/01/02 11:06:13;;;;;;;14.63;6.63;;;11.40;99.90;;;;;;4860515;29;20175;-59
2022/01/02 11:08:44;;;;;;;19.77;7.35;;;11.40;99.90;;;;;;4878124;29;20060;-60
2022/01/02 11:11:10;;;;;;;16.40;6.78;;;11.40;99.90;;;;;;4843942;29;20972;-58
2022/01/02 11:13:36;;;;;;;19.17;6.40;;;11.40;99.90;;;;;;4864748;29;20464;-60
2022/01/02 11:16:03;;;;;;;20.02;5.55;;;11.40;99.90;;;;;;4860315;29;20052;-59
2022/01/02 11:18:34;;;;;;;13.68;5.63;;;11.50;99.90;;;;;;4860908;29;20403;-61
2022/01/02 11:21:02;;;;;;;21.55;5.88;;;11.50;99.90;;;;;;4876728;29;20123;-60
2022/01/02 11:23:53;;;;;;;18.15;5.80;;;11.50;99.90;;;;;;4862065;29;20049;-60
2022/01/02 11:26:47;;;;;;;18.10;5.93;;;11.50;99.90;;;;;;4861757;29;20052;-59
2022/01/02 11:29:14;;;;;;;16.13;5.78;;;11.50;99.90;;;;;;4876081;29;20183;-60
2022/01/02 11:31:43;;;;;;;15.13;6.05;;;11.50;99.90;;;;;;4860872;29;20083;-59
2022/01/02 11:34:24;;;;;;;16.95;6.05;;;11.50;99.90;;;;;;4877046;29;20055;-60
2022/01/02 11:36:51;;;;;;;21.75;6.28;;;11.60;99.90;;;;;;4878734;29;20130;-60
2022/01/02 11:39:17;;;;;;;17.65;6.22;;;11.60;99.90;;;;;;4878297;29;20560;-60
2022/01/02 11:41:51;;;;;;;17.25;5.60;;;11.60;99.90;;;;;;4860978;29;20045;-59
2022/01/02 11:44:18;;;;;;;15.65;5.75;;;11.60;99.90;;;;;;4874440;29;20076;-60
2022/01/02 11:46:50;;;;;;;20.02;6.22;;;11.60;99.90;;;;;;4875972;29;20053;-58
2022/01/02 11:49:21;;;;;;;18.42;5.80;;;11.50;99.90;;;;;;4878218;29;20112;-59
2022/01/02 11:51:50;;;;;;;17.20;5.38;;;11.40;99.90;;;;;;4875184;29;20060;-59
2022/01/02 11:54:40;;;;;;;15.63;5.05;;;11.50;99.90;;;;;;4881262;29;20053;-60
2022/01/02 11:57:12;;;;;;;18.13;5.32;;;11.50;99.90;;;;;;4881658;29;20131;-60
2022/01/02 11:59:47;;;;;;;17.15;4.70;;;11.50;99.90;;;;;;4863311;29;20117;-60
2022/01/02 12:02:13;;;;;;;17.80;5.80;;;11.50;99.90;;;;;;4862244;29;20053;-60
2022/01/02 12:07:35;;;;;;;19.40;5.22;;;11.50;99.90;;;;;;4861998;29;20045;-61
2022/01/02 12:10:16;;;;;;;18.35;4.88;;;11.40;99.90;;;;;;4874480;29;20091;-59
2022/01/02 12:13:02;;;;;;;18.88;4.80;;;11.40;99.90;;;;;;4861598;29;20135;-59
2022/01/02 12:15:34;;;;;;;16.10;4.60;;;11.40;99.90;;;;;;4881128;29;20060;-59
2022/01/02 12:18:16;;;;;;;29.10;5.30;;;11.40;99.90;;;;;;4878832;29;20610;-59
2022/01/02 12:20:51;;;;;;;16.17;4.70;;;11.40;99.90;;;;;;4877538;29;20478;-58
2022/01/02 12:23:32;;;;;;;23.95;4.93;;;11.40;99.90;;;;;;4880525;29;20511;-59
2022/01/02 12:25:59;;;;;;;20.88;4.57;;;11.40;99.90;;;;;;4873947;29;20075;-59
2022/01/02 12:28:25;;;;;;;18.77;4.78;;;11.40;99.90;;;;;;4876697;29;20067;-59
2022/01/02 12:30:54;;;;;;;21.13;4.03;;;11.40;99.90;;;;;;4858611;29;20063;-58
2022/01/02 12:33:29;;;;;;;17.70;4.68;;;11.40;99.90;;;;;;4865688;29;20057;-59
2022/01/02 12:35:55;;;;;;;19.02;4.18;;;11.40;99.90;;;;;;4860570;29;20084;-59
2022/01/02 12:38:21;;;;;;;26.55;4.30;;;11.40;99.90;;;;;;4864197;29;20052;-59
2022/01/02 12:40:49;;;;;;;19.65;4.10;;;11.40;99.90;;;;;;4874802;29;20146;-58
2022/01/02 12:43:23;;;;;;;16.15;3.55;;;11.40;99.90;;;;;;4877064;29;20167;-57
2022/01/02 12:45:56;;;;;;;14.75;3.22;;;11.40;99.90;;;;;;4863116;29;20163;-58
2022/01/02 12:48:35;;;;;;;17.52;3.55;;;11.40;99.90;;;;;;4880535;29;20460;-58
2022/01/02 12:51:11;;;;;;;20.73;3.95;;;11.40;99.90;;;;;;4872674;29;20412;-57
2022/01/02 12:53:37;;;;;;;16.08;3.58;;;11.40;99.90;;;;;;4874593;29;20044;-57
2022/01/02 12:56:03;;;;;;;13.55;3.80;;;11.30;99.90;;;;;;4872701;29;20338;-58